Time;durP1;ratioP1;P1;durP2;ratioP2;P2;SDS_P1;SDS_P2;PMS_P1;PMS_P2;Temp;Humidity;BMP_temperature;BMP_pressure;BME280_temperature;BME280_humidity;BME280_pressure;Samples;Min_cycle;Max_cycle;Signal;HPM_P1;HPM_P2
2023/04/15 00:01:22;;;;;;;14.77;9.18;;;7.00;99.90;;;;;;5060808;28;20033;-83
2023/04/15 00:03:53;;;;;;;16.17;8.38;;;7.00;99.90;;;;;;5059299;28;20165;-83
2023/04/15 00:06:22;;;;;;;18.95;9.50;;;7.00;99.90;;;;;;5062569;28;20032;-84
2023/04/15 00:08:49;;;;;;;12.32;8.65;;;7.00;99.90;;;;;;5060853;28;20137;-84
2023/04/15 00:11:15;;;;;;;12.30;9.02;;;7.00;99.90;;;;;;5062641;28;20025;-84
2023/04/15 00:13:42;;;;;;;12.20;8.63;;;7.00;99.90;;;;;;5057694;28;20032;-84
2023/04/15 00:16:08;;;;;;;14.57;8.15;;;7.00;99.90;;;;;;5057404;28;20087;-83
2023/04/15 00:18:35;;;;;;;12.88;9.20;;;7.00;99.90;;;;;;5064144;28;20026;-84
2023/04/15 00:21:01;;;;;;;12.13;8.35;;;7.00;99.90;;;;;;5064531;28;20055;-83
2023/04/15 00:23:28;;;;;;;12.25;8.07;;;7.00;99.90;;;;;;5059687;28;20179;-84
2023/04/15 00:25:53;;;;;;;12.68;8.60;;;6.90;99.90;;;;;;5053934;28;20032;-83
2023/04/15 00:28:19;;;;;;;15.43;9.43;;;6.90;99.90;;;;;;5060110;28;20362;-83
2023/04/15 00:30:46;;;;;;;14.57;8.48;;;7.00;99.90;;;;;;5061556;28;20039;-84
2023/04/15 00:33:12;;;;;;;15.60;8.77;;;7.00;99.90;;;;;;5062502;28;20036;-83
2023/04/15 00:35:38;;;;;;;13.38;9.60;;;7.00;99.90;;;;;;5063399;28;20059;-83
2023/04/15 00:38:07;;;;;;;16.50;9.13;;;7.00;99.90;;;;;;5063414;28;20031;-84
2023/04/15 00:40:33;;;;;;;15.02;9.18;;;7.00;99.90;;;;;;5061834;28;20153;-83
2023/04/15 00:42:59;;;;;;;14.30;8.32;;;7.00;99.90;;;;;;5058431;28;20075;-83
2023/04/15 00:45:26;;;;;;;14.48;8.32;;;7.00;99.90;;;;;;5062087;28;20056;-84
2023/04/15 00:47:51;;;;;;;13.55;8.43;;;7.00;99.90;;;;;;5061789;28;20075;-83
2023/04/15 00:50:17;;;;;;;14.07;9.35;;;7.00;99.90;;;;;;5061522;28;20560;-83
2023/04/15 00:52:43;;;;;;;18.63;11.23;;;6.90;99.90;;;;;;5060138;28;20119;-83
2023/04/15 00:55:09;;;;;;;13.73;9.32;;;6.90;99.90;;;;;;5058690;28;20035;-83
2023/04/15 00:57:35;;;;;;;12.52;8.63;;;6.90;99.90;;;;;;5061479;28;20028;-83
2023/04/15 01:00:02;;;;;;;15.40;9.50;;;6.80;99.90;;;;;;5059184;28;20036;-84
2023/04/15 01:02:27;;;;;;;12.95;9.90;;;6.80;99.90;;;;;;5055079;28;20035;-85
2023/04/15 01:04:53;;;;;;;14.40;9.25;;;6.80;99.90;;;;;;5057552;28;20385;-83
2023/04/15 01:07:19;;;;;;;13.70;9.48;;;6.80;99.90;;;;;;5060695;28;20031;-83
2023/04/15 01:09:44;;;;;;;13.65;10.15;;;6.80;99.90;;;;;;5062378;28;20032;-83
2023/04/15 01:12:17;;;;;;;15.90;10.50;;;6.80;99.90;;;;;;5063500;28;20036;-84
2023/04/15 01:14:42;;;;;;;14.00;10.40;;;6.80;99.90;;;;;;5057492;28;20036;-83
2023/04/15 01:17:08;;;;;;;17.35;11.10;;;6.70;99.90;;;;;;5062855;28;20024;-84
2023/04/15 01:19:36;;;;;;;25.85;12.95;;;6.70;99.90;;;;;;5059735;28;20111;-87
2023/04/15 01:22:02;;;;;;;23.63;13.38;;;6.80;99.90;;;;;;5057344;28;20033;-83
2023/04/15 01:24:30;;;;;;;16.65;11.65;;;6.80;99.90;;;;;;5058131;28;20071;-83
2023/04/15 01:26:56;;;;;;;17.92;12.38;;;6.80;99.90;;;;;;5059617;28;20493;-82
2023/04/15 01:29:22;;;;;;;19.88;13.32;;;6.80;99.90;;;;;;5060816;28;20049;-83
2023/04/15 01:31:52;;;;;;;19.48;13.57;;;6.70;99.90;;;;;;5060489;28;20322;-83
2023/04/15 01:34:18;;;;;;;21.20;14.25;;;6.70;99.90;;;;;;5062896;28;20068;-82
2023/04/15 01:36:45;;;;;;;21.60;15.30;;;6.70;99.90;;;;;;5064415;28;20020;-83
2023/04/15 01:39:10;;;;;;;22.98;15.00;;;6.70;99.90;;;;;;5061544;28;20013;-85
2023/04/15 01:41:36;;;;;;;24.83;15.27;;;6.70;99.90;;;;;;5060402;28;20094;-84
2023/04/15 01:44:03;;;;;;;21.75;15.90;;;6.70;99.90;;;;;;5057525;28;20029;-85
2023/04/15 01:46:28;;;;;;;22.27;14.95;;;6.60;99.90;;;;;;5063554;28;20189;-85
2023/04/15 01:48:54;;;;;;;20.20;14.75;;;6.60;99.90;;;;;;5057963;28;20124;-83
2023/04/15 01:51:20;;;;;;;25.60;15.85;;;6.60;99.90;;;;;;5060294;28;20016;-85
2023/04/15 01:53:46;;;;;;;25.27;16.58;;;6.60;99.90;;;;;;5060189;28;20033;-83
2023/04/15 01:56:12;;;;;;;27.63;17.65;;;6.60;99.90;;;;;;5059319;28;20028;-83
2023/04/15 01:58:39;;;;;;;26.85;16.55;;;6.60;99.90;;;;;;5059289;28;20052;-84
2023/04/15 02:01:05;;;;;;;30.58;18.88;;;6.50;99.90;;;;;;5061905;28;20104;-86
2023/04/15 02:03:31;;;;;;;28.83;17.08;;;6.50;99.90;;;;;;5067682;28;20469;-84
2023/04/15 02:05:57;;;;;;;27.63;18.45;;;6.50;99.90;;;;;;5065056;28;20028;-84
2023/04/15 02:08:23;;;;;;;30.20;19.70;;;6.50;99.90;;;;;;5063139;28;20305;-86
2023/04/15 02:10:48;;;;;;;24.50;17.40;;;6.50;99.90;;;;;;5064952;28;20020;-85
2023/04/15 02:13:14;;;;;;;26.88;18.48;;;6.50;99.90;;;;;;5064834;28;20024;-84
2023/04/15 02:15:40;;;;;;;33.05;18.60;;;6.50;99.90;;;;;;5068425;28;20024;-84
2023/04/15 02:18:06;;;;;;;25.35;17.60;;;6.50;99.90;;;;;;5063859;28;20477;-85
2023/04/15 02:20:32;;;;;;;27.45;16.75;;;6.40;99.90;;;;;;5060004;28;20032;-84
2023/04/15 02:23:00;;;;;;;22.42;16.05;;;6.40;99.90;;;;;;5060178;28;20474;-86
2023/04/15 02:25:26;;;;;;;24.35;15.90;;;6.40;99.90;;;;;;5056698;28;20025;-84
2023/04/15 02:27:52;;;;;;;25.73;15.98;;;6.30;99.90;;;;;;5065266;28;20094;-84
2023/04/15 02:30:17;;;;;;;21.38;15.00;;;6.30;99.90;;;;;;5062319;28;20044;-85
2023/04/15 02:32:43;;;;;;;21.92;14.73;;;6.30;99.90;;;;;;5064265;28;20511;-84
2023/04/15 02:35:09;;;;;;;30.55;16.30;;;6.40;99.90;;;;;;5062439;28;20124;-84
2023/04/15 02:37:39;;;;;;;21.50;14.93;;;6.40;99.90;;;;;;5057283;28;20037;-85
2023/04/15 02:40:08;;;;;;;28.77;16.08;;;6.30;99.90;;;;;;5061040;28;20052;-85
2023/04/15 02:42:34;;;;;;;25.27;16.60;;;6.30;99.90;;;;;;5066045;28;20036;-84
2023/04/15 02:44:59;;;;;;;23.20;15.73;;;6.30;99.90;;;;;;5065620;28;20495;-85
2023/04/15 02:47:25;;;;;;;22.13;15.90;;;6.30;99.90;;;;;;5058494;28;20099;-87
2023/04/15 02:49:51;;;;;;;26.77;16.70;;;6.30;99.90;;;;;;5064912;28;20037;-85
2023/04/15 02:52:17;;;;;;;26.83;15.93;;;6.30;99.90;;;;;;5057975;28;20029;-87
2023/04/15 02:54:42;;;;;;;25.02;16.75;;;6.30;99.90;;;;;;5062440;28;20036;-86
2023/04/15 02:57:09;;;;;;;28.80;17.42;;;6.30;99.90;;;;;;5059030;28;20078;-88
2023/04/15 02:59:35;;;;;;;23.20;16.67;;;6.30;99.90;;;;;;5060659;28;20039;-85
2023/04/15 03:02:00;;;;;;;24.75;16.25;;;6.30;99.90;;;;;;5060027;28;20385;-85
2023/04/15 03:04:29;;;;;;;22.63;15.80;;;6.30;99.90;;;;;;5063140;28;20511;-86
2023/04/15 03:06:55;;;;;;;26.55;15.60;;;6.30;99.90;;;;;;5061074;28;20484;-85
2023/04/15 03:09:21;;;;;;;26.35;15.85;;;6.30;99.90;;;;;;5063056;28;20119;-84
2023/04/15 03:11:47;;;;;;;28.60;17.27;;;6.40;99.90;;;;;;5058194;28;20108;-86
2023/04/15 03:14:12;;;;;;;26.88;16.50;;;6.30;99.90;;;;;;5055550;28;20024;-84
2023/04/15 03:16:38;;;;;;;27.73;16.55;;;6.30;99.90;;;;;;5057893;28;20370;-85
2023/04/15 03:19:04;;;;;;;27.42;16.67;;;6.30;99.90;;;;;;5060883;28;20580;-85
2023/04/15 03:21:29;;;;;;;25.77;16.48;;;6.30;99.90;;;;;;5064249;28;20069;-85
2023/04/15 03:23:56;;;;;;;29.27;15.40;;;6.30;99.90;;;;;;5061959;28;20410;-85
2023/04/15 03:26:29;;;;;;;26.08;15.75;;;6.30;99.90;;;;;;5063466;28;20094;-84
2023/04/15 03:28:55;;;;;;;30.65;16.30;;;6.30;99.90;;;;;;5063321;28;20047;-85
2023/04/15 03:31:21;;;;;;;25.60;15.98;;;6.30;99.90;;;;;;5063820;28;20027;-85
2023/04/15 03:33:46;;;;;;;30.13;16.92;;;6.30;99.90;;;;;;5065105;28;20029;-84
2023/04/15 03:36:12;;;;;;;26.08;15.68;;;6.30;99.90;;;;;;5061939;28;20071;-81
2023/04/15 03:38:37;;;;;;;24.33;15.70;;;6.30;99.90;;;;;;5060728;28;20477;-84
2023/04/15 03:41:03;;;;;;;25.42;15.18;;;6.30;99.90;;;;;;5062319;28;20046;-85
2023/04/15 03:43:29;;;;;;;33.58;17.42;;;6.30;99.90;;;;;;5062130;28;20104;-86
2023/04/15 03:45:55;;;;;;;28.52;15.90;;;6.30;99.90;;;;;;5065492;28;20124;-85
2023/04/15 03:48:20;;;;;;;24.10;15.93;;;6.30;99.90;;;;;;5062716;28;20039;-85
2023/04/15 03:50:47;;;;;;;25.27;15.60;;;6.30;99.90;;;;;;5061324;28;20079;-86
2023/04/15 03:53:13;;;;;;;26.80;15.77;;;6.30;99.90;;;;;;5057313;28;20100;-86
2023/04/15 03:55:39;;;;;;;27.73;17.80;;;6.30;99.90;;;;;;5063338;28;20029;-87
2023/04/15 03:58:11;;;;;;;30.70;16.05;;;6.30;99.90;;;;;;5063726;28;20029;-87
2023/04/15 04:00:37;;;;;;;30.55;17.48;;;6.30;99.90;;;;;;5058408;28;20041;-87
2023/04/15 04:03:03;;;;;;;27.83;17.60;;;6.30;99.90;;;;;;5060629;28;20020;-88
2023/04/15 04:05:29;;;;;;;30.08;17.83;;;6.30;99.90;;;;;;5062182;28;20400;-87
2023/04/15 04:07:54;;;;;;;33.00;19.17;;;6.30;99.90;;;;;;5064721;28;20029;-86
2023/04/15 04:10:20;;;;;;;35.08;18.85;;;6.30;99.90;;;;;;5061590;28;20370;-87
2023/04/15 04:12:45;;;;;;;35.70;20.90;;;6.30;99.90;;;;;;5065367;28;20128;-83
2023/04/15 04:15:11;;;;;;;37.70;21.58;;;6.30;99.90;;;;;;5064283;28;20024;-82
2023/04/15 04:17:37;;;;;;;39.00;23.05;;;6.30;99.90;;;;;;5057858;28;20024;-88
2023/04/15 04:20:04;;;;;;;38.08;23.88;;;6.30;99.90;;;;;;5059492;28;20928;-86
2023/04/15 04:22:30;;;;;;;47.05;24.33;;;6.30;99.90;;;;;;5057285;28;20054;-85
2023/04/15 04:24:58;;;;;;;47.17;27.08;;;6.30;99.90;;;;;;5062389;28;20032;-82
2023/04/15 04:27:24;;;;;;;51.22;27.92;;;6.30;99.90;;;;;;5064153;28;20421;-84
2023/04/15 04:29:50;;;;;;;58.40;30.52;;;6.30;99.90;;;;;;5055706;28;20041;-85
2023/04/15 04:32:15;;;;;;;50.63;29.88;;;6.30;99.90;;;;;;5063759;28;20036;-84
2023/04/15 04:34:41;;;;;;;62.63;33.33;;;6.30;99.90;;;;;;5061805;28;20098;-84
2023/04/15 04:37:07;;;;;;;61.38;32.45;;;6.30;99.90;;;;;;5062491;28;20181;-85
2023/04/15 04:39:32;;;;;;;61.30;35.30;;;6.30;99.90;;;;;;5061052;28;20021;-82
2023/04/15 04:41:58;;;;;;;62.35;34.33;;;6.20;99.90;;;;;;5061856;28;20181;-85
2023/04/15 04:44:24;;;;;;;63.58;35.60;;;6.20;99.90;;;;;;5064728;28;20025;-85
2023/04/15 04:46:49;;;;;;;56.22;33.50;;;6.30;99.90;;;;;;5062747;28;20024;-85
2023/04/15 04:49:15;;;;;;;60.75;32.42;;;6.20;99.90;;;;;;5063796;28;20043;-84
2023/04/15 04:51:41;;;;;;;54.55;31.45;;;6.20;99.90;;;;;;5058062;28;20031;-84
2023/04/15 04:54:08;;;;;;;59.60;31.13;;;6.20;99.90;;;;;;5050002;28;20017;-86
2023/04/15 04:56:34;;;;;;;57.50;32.58;;;6.20;99.90;;;;;;5061240;28;20035;-84
2023/04/15 04:59:00;;;;;;;59.13;32.92;;;6.20;99.90;;;;;;5059614;28;20032;-85
2023/04/15 05:01:26;;;;;;;56.70;30.75;;;6.20;99.90;;;;;;5064164;28;20035;-83
2023/04/15 05:03:52;;;;;;;55.55;31.45;;;6.30;99.90;;;;;;5062174;28;20392;-85
2023/04/15 05:06:17;;;;;;;52.60;29.10;;;6.20;99.90;;;;;;5061704;28;20385;-84
2023/04/15 05:08:43;;;;;;;50.55;27.52;;;6.20;99.90;;;;;;5056838;28;20123;-84
2023/04/15 05:11:09;;;;;;;53.30;28.38;;;6.30;99.90;;;;;;5057870;28;20032;-85
2023/04/15 05:13:37;;;;;;;51.45;27.50;;;6.20;99.90;;;;;;5062846;28;20478;-86
2023/04/15 05:16:04;;;;;;;55.70;26.80;;;6.30;99.90;;;;;;5058269;28;20028;-83
2023/04/15 05:18:29;;;;;;;49.70;28.17;;;6.30;99.90;;;;;;5059232;28;20024;-87
2023/04/15 05:20:55;;;;;;;49.97;27.23;;;6.30;99.90;;;;;;5060399;28;20478;-82
2023/04/15 05:23:21;;;;;;;46.20;27.08;;;6.30;99.90;;;;;;5057863;28;20466;-84
2023/04/15 05:25:46;;;;;;;45.20;26.17;;;6.30;99.90;;;;;;5059400;28;20059;-85
2023/04/15 05:28:12;;;;;;;49.90;27.48;;;6.30;99.90;;;;;;5054415;28;20031;-83
2023/04/15 05:30:39;;;;;;;52.28;29.42;;;6.30;99.90;;;;;;5057423;28;20501;-83
2023/04/15 05:33:04;;;;;;;43.67;27.23;;;6.30;99.90;;;;;;5059700;28;20489;-85
2023/04/15 05:35:30;;;;;;;46.40;26.67;;;6.30;99.90;;;;;;5062898;28;20036;-85
2023/04/15 05:37:56;;;;;;;48.58;27.42;;;6.30;99.90;;;;;;5062867;28;20445;-85
2023/04/15 05:40:22;;;;;;;44.65;26.25;;;6.30;99.90;;;;;;5062405;28;20060;-85
2023/04/15 05:42:47;;;;;;;49.35;30.10;;;6.30;99.90;;;;;;5064843;28;20024;-84
2023/04/15 05:45:13;;;;;;;47.13;26.83;;;6.30;99.90;;;;;;5060119;28;20490;-85
2023/04/15 05:47:39;;;;;;;51.03;29.13;;;6.40;99.90;;;;;;5059208;28;20182;-84
2023/04/15 05:50:05;;;;;;;50.10;27.88;;;6.30;99.90;;;;;;5062217;28;20063;-86
2023/04/15 05:52:31;;;;;;;48.45;29.75;;;6.30;99.90;;;;;;5060385;28;20029;-85
2023/04/15 05:54:57;;;;;;;49.38;28.80;;;6.20;99.90;;;;;;5065646;28;20287;-86
2023/04/15 05:57:23;;;;;;;45.90;28.73;;;6.30;99.90;;;;;;5062290;28;20021;-85
2023/04/15 05:59:51;;;;;;;51.15;30.02;;;6.30;99.90;;;;;;5061934;28;20016;-85
2023/04/15 06:02:19;;;;;;;51.70;28.80;;;6.40;99.90;;;;;;5057820;28;20067;-82
2023/04/15 06:04:45;;;;;;;42.78;27.00;;;6.40;99.90;;;;;;5066770;28;20041;-84
2023/04/15 06:07:11;;;;;;;44.13;26.92;;;6.40;99.90;;;;;;5062834;28;20216;-85
2023/04/15 06:09:36;;;;;;;44.13;26.23;;;6.40;99.90;;;;;;5065666;28;20037;-82
2023/04/15 06:12:03;;;;;;;43.13;26.20;;;6.40;99.90;;;;;;5064289;28;20032;-84
2023/04/15 06:14:29;;;;;;;42.20;26.83;;;6.40;99.90;;;;;;5060269;28;20396;-85
2023/04/15 06:16:55;;;;;;;40.97;25.13;;;6.40;99.90;;;;;;5064440;28;20119;-84
2023/04/15 06:19:20;;;;;;;39.92;25.35;;;6.50;99.90;;;;;;5056385;28;20040;-83
2023/04/15 06:21:46;;;;;;;40.85;26.20;;;6.40;99.90;;;;;;5064319;28;20102;-84
2023/04/15 06:24:13;;;;;;;46.30;27.38;;;6.40;99.90;;;;;;5059554;28;20040;-83
2023/04/15 06:26:38;;;;;;;42.95;26.30;;;6.40;99.90;;;;;;5057826;28;20032;-85
2023/04/15 06:29:05;;;;;;;43.83;26.48;;;6.40;99.90;;;;;;5061596;28;20124;-84
2023/04/15 06:31:31;;;;;;;45.75;26.10;;;6.40;99.90;;;;;;5063853;28;20036;-82
2023/04/15 06:33:58;;;;;;;38.15;24.45;;;6.40;99.90;;;;;;5063519;28;20039;-84
2023/04/15 06:36:23;;;;;;;43.42;26.45;;;6.50;99.90;;;;;;5063125;28;20032;-84
2023/04/15 06:38:50;;;;;;;39.83;25.42;;;6.50;99.90;;;;;;5059616;28;20074;-85
2023/04/15 06:41:17;;;;;;;47.38;27.15;;;6.40;99.90;;;;;;5063665;28;20168;-84
2023/04/15 06:43:45;;;;;;;40.00;26.02;;;6.40;99.90;;;;;;5061179;28;20025;-85
2023/04/15 06:46:11;;;;;;;39.60;25.65;;;6.50;99.90;;;;;;5064845;28;20127;-84
2023/04/15 06:48:38;;;;;;;42.20;24.50;;;6.40;99.90;;;;;;5063749;28;20111;-84
2023/04/15 06:51:04;;;;;;;40.78;24.08;;;6.50;99.90;;;;;;5066532;28;20025;-84
2023/04/15 06:53:29;;;;;;;44.13;26.45;;;6.50;99.90;;;;;;5057637;28;20031;-85
2023/04/15 06:55:55;;;;;;;40.30;25.95;;;6.50;99.90;;;;;;5061298;28;20032;-84
2023/04/15 06:58:21;;;;;;;39.92;26.52;;;6.50;99.90;;;;;;5059136;28;20242;-83
2023/04/15 07:00:47;;;;;;;40.72;26.40;;;6.50;99.90;;;;;;5061911;28;20024;-84
2023/04/15 07:03:13;;;;;;;36.10;24.52;;;6.50;99.90;;;;;;5058213;28;20032;-86
2023/04/15 07:05:42;;;;;;;36.13;25.17;;;6.50;99.90;;;;;;5056651;28;20493;-85
2023/04/15 07:08:07;;;;;;;42.88;26.33;;;6.60;99.90;;;;;;5062129;28;20032;-83
2023/04/15 07:10:33;;;;;;;32.75;22.92;;;6.50;99.90;;;;;;5063264;28;20452;-84
2023/04/15 07:13:00;;;;;;;33.88;22.98;;;6.50;99.90;;;;;;5061980;28;20438;-83
2023/04/15 07:15:28;;;;;;;36.97;24.30;;;6.60;99.90;;;;;;5057993;28;20087;-82
2023/04/15 07:17:53;;;;;;;34.45;24.10;;;6.50;99.90;;;;;;5060149;28;20024;-83
2023/04/15 07:20:19;;;;;;;35.47;23.75;;;6.50;99.90;;;;;;5056945;28;20044;-83
2023/04/15 07:22:44;;;;;;;35.97;24.67;;;6.50;99.90;;;;;;5060372;28;20028;-83
2023/04/15 07:25:10;;;;;;;36.13;24.50;;;6.50;99.90;;;;;;5063188;28;20377;-82
2023/04/15 07:27:36;;;;;;;33.95;22.65;;;6.50;99.90;;;;;;5061038;28;20029;-84
2023/04/15 07:30:05;;;;;;;30.65;21.48;;;6.50;99.90;;;;;;5057971;28;20078;-83
2023/04/15 07:32:31;;;;;;;37.97;23.52;;;6.60;99.90;;;;;;5056216;28;20056;-83
2023/04/15 07:34:56;;;;;;;30.95;20.67;;;6.50;99.90;;;;;;5058796;28;20040;-82
2023/04/15 07:37:22;;;;;;;31.25;20.65;;;6.50;99.90;;;;;;5059563;28;20029;-83
2023/04/15 07:39:47;;;;;;;32.47;21.38;;;6.60;99.90;;;;;;5059787;28;20029;-82
2023/04/15 07:42:14;;;;;;;28.75;19.77;;;6.60;99.90;;;;;;5060592;28;20078;-85
2023/04/15 07:44:40;;;;;;;32.67;20.10;;;6.60;99.90;;;;;;5064200;28;20478;-84
2023/04/15 07:47:05;;;;;;;27.58;19.65;;;6.60;99.90;;;;;;5061115;28;20047;-85
2023/04/15 07:49:32;;;;;;;32.42;21.45;;;6.60;99.90;;;;;;5061094;28;20029;-84
2023/04/15 07:51:58;;;;;;;38.75;23.95;;;6.60;99.90;;;;;;5061504;28;20021;-84
2023/04/15 07:54:24;;;;;;;55.67;33.70;;;6.70;99.90;;;;;;5060030;28;20487;-82
2023/04/15 07:56:50;;;;;;;62.08;38.95;;;6.70;99.90;;;;;;5052007;28;20025;-82
2023/04/15 07:59:16;;;;;;;68.43;42.95;;;6.70;99.90;;;;;;5063443;28;20025;-81
2023/04/15 08:01:45;;;;;;;54.80;32.63;;;6.70;99.90;;;;;;5061620;28;20350;-82
2023/04/15 08:04:11;;;;;;;39.95;25.50;;;6.60;99.90;;;;;;5058974;28;20033;-82
2023/04/15 08:06:38;;;;;;;39.83;25.63;;;6.70;99.90;;;;;;5060324;28;20432;-83
2023/04/15 08:09:04;;;;;;;36.03;23.67;;;6.70;99.90;;;;;;5060851;28;20028;-84
2023/04/15 08:11:30;;;;;;;37.40;25.20;;;6.70;99.90;;;;;;5065801;28;20445;-82
2023/04/15 08:13:56;;;;;;;39.78;26.17;;;6.70;99.90;;;;;;5061493;28;20020;-81
2023/04/15 08:16:23;;;;;;;39.58;26.38;;;6.70;99.90;;;;;;5062987;28;20033;-82
2023/04/15 08:18:51;;;;;;;31.48;22.88;;;6.70;99.90;;;;;;5057450;28;20021;-80
2023/04/15 08:21:18;;;;;;;34.08;22.38;;;6.70;99.90;;;;;;5061478;28;20028;-81
2023/04/15 08:23:46;;;;;;;32.47;21.80;;;6.70;99.90;;;;;;5061224;28;20040;-81
2023/04/15 08:26:12;;;;;;;32.15;21.88;;;6.70;99.90;;;;;;5060474;28;20025;-83
2023/04/15 08:28:39;;;;;;;39.22;24.83;;;6.70;99.90;;;;;;5064704;28;20393;-81
2023/04/15 08:31:05;;;;;;;35.35;22.17;;;6.70;99.90;;;;;;5061237;28;20032;-82
2023/04/15 08:33:30;;;;;;;36.58;23.48;;;6.70;99.90;;;;;;5060165;28;20013;-82
2023/04/15 08:35:56;;;;;;;36.72;24.38;;;6.70;99.90;;;;;;5060131;28;20513;-83
2023/04/15 08:38:23;;;;;;;33.05;23.25;;;6.70;99.90;;;;;;5061649;28;20032;-84
2023/04/15 08:40:49;;;;;;;34.65;22.40;;;6.80;99.90;;;;;;5056759;28;20128;-82
2023/04/15 08:43:23;;;;;;;34.85;21.52;;;6.70;99.90;;;;;;5057321;28;20028;-83
2023/04/15 08:45:50;;;;;;;33.92;22.27;;;6.70;99.90;;;;;;5054436;28;20025;-83
2023/04/15 08:48:17;;;;;;;36.17;23.55;;;6.80;99.90;;;;;;5059558;28;20120;-81
2023/04/15 08:50:44;;;;;;;32.35;21.80;;;6.80;99.90;;;;;;5061244;28;20060;-82
2023/04/15 08:53:14;;;;;;;35.35;22.40;;;6.80;99.90;;;;;;5052997;28;20025;-84
2023/04/15 08:55:44;;;;;;;38.47;22.77;;;6.80;99.90;;;;;;5059096;28;20024;-84
2023/04/15 08:58:11;;;;;;;41.17;24.67;;;6.80;99.90;;;;;;5057895;28;20400;-83
2023/04/15 09:00:37;;;;;;;38.40;24.23;;;6.80;99.90;;;;;;5060591;28;20461;-83
2023/04/15 09:03:08;;;;;;;34.97;23.40;;;6.80;99.90;;;;;;5059291;28;20036;-83
2023/04/15 09:05:35;;;;;;;36.03;23.77;;;6.80;99.90;;;;;;5054958;28;20055;-81
2023/04/15 09:08:01;;;;;;;33.70;22.00;;;6.80;99.90;;;;;;5059406;28;20429;-81
2023/04/15 09:10:27;;;;;;;30.88;20.63;;;6.80;99.90;;;;;;5063266;28;20394;-82
2023/04/15 09:12:56;;;;;;;31.38;20.58;;;6.80;99.90;;;;;;5060405;28;20390;-84
2023/04/15 09:15:26;;;;;;;32.03;20.92;;;6.80;99.90;;;;;;5060653;28;20056;-83
2023/04/15 09:17:52;;;;;;;31.27;21.27;;;6.90;99.90;;;;;;5058537;28;20032;-81
2023/04/15 09:20:21;;;;;;;34.40;21.95;;;6.90;99.90;;;;;;5060589;28;20028;-84
2023/04/15 09:22:48;;;;;;;33.90;21.60;;;6.90;99.90;;;;;;5060454;28;20040;-81
2023/04/15 09:25:34;;;;;;;37.10;24.25;;;6.90;99.90;;;;;;5058135;28;20048;-82
2023/04/15 09:28:01;;;;;;;;;;;6.90;99.90;;;;;;5062611;28;20036;-84
2023/04/15 09:30:28;;;;;;;35.97;24.00;;;6.90;99.90;;;;;;5057921;28;19920;-83
2023/04/15 09:32:56;;;;;;;34.58;23.20;;;6.90;99.90;;;;;;5061883;28;20119;-82
2023/04/15 09:35:24;;;;;;;30.35;20.63;;;6.90;99.90;;;;;;5062149;28;20458;-83
2023/04/15 09:37:50;;;;;;;33.05;22.42;;;6.90;99.90;;;;;;5058511;28;20033;-83
2023/04/15 09:40:34;;;;;;;33.50;23.02;;;7.00;99.90;;;;;;5055589;28;20053;-83
2023/04/15 09:43:01;;;;;;;38.42;22.85;;;7.00;99.90;;;;;;5060696;28;20036;-83
2023/04/15 09:45:28;;;;;;;39.13;24.02;;;6.90;99.90;;;;;;5064204;28;20027;-84
2023/04/15 09:47:53;;;;;;;39.53;25.98;;;6.90;99.90;;;;;;5062903;28;20029;-83
2023/04/15 09:50:20;;;;;;;38.67;24.25;;;7.00;99.90;;;;;;5058174;28;20460;-83
2023/04/15 09:52:46;;;;;;;38.88;26.40;;;7.00;99.90;;;;;;5052190;28;20025;-83
2023/04/15 09:55:14;;;;;;;42.47;26.52;;;7.00;99.90;;;;;;5057477;28;20285;-85
2023/04/15 09:57:40;;;;;;;41.20;25.98;;;7.00;99.90;;;;;;5054882;28;20702;-82
2023/04/15 10:00:08;;;;;;;37.28;24.52;;;7.10;99.90;;;;;;5055900;28;20028;-85
2023/04/15 10:02:35;;;;;;;35.40;24.58;;;7.10;99.90;;;;;;5059249;28;20108;-82
2023/04/15 10:05:01;;;;;;;39.40;24.80;;;7.10;99.90;;;;;;5055371;28;20039;-81
2023/04/15 10:07:27;;;;;;;40.03;23.10;;;7.10;99.90;;;;;;5057452;28;20031;-82
2023/04/15 10:09:53;;;;;;;35.92;21.85;;;7.10;99.90;;;;;;5056704;28;20032;-82
2023/04/15 10:12:20;;;;;;;38.20;22.23;;;7.10;99.90;;;;;;5059695;28;20020;-84
2023/04/15 10:14:55;;;;;;;36.30;23.08;;;7.10;99.90;;;;;;5060502;28;20029;-83
2023/04/15 10:17:22;;;;;;;44.22;26.65;;;7.20;99.90;;;;;;5057462;28;20115;-83
2023/04/15 10:19:49;;;;;;;43.25;25.20;;;7.10;99.90;;;;;;5060658;28;20025;-83
2023/04/15 10:22:17;;;;;;;39.00;23.10;;;7.10;99.90;;;;;;5060091;28;20029;-85
2023/04/15 10:24:44;;;;;;;40.97;24.65;;;7.20;99.90;;;;;;5060674;28;20043;-83
2023/04/15 10:27:10;;;;;;;39.60;20.75;;;7.20;99.90;;;;;;5056332;28;20388;-81
2023/04/15 10:29:36;;;;;;;36.15;21.67;;;7.20;99.90;;;;;;5067462;28;20037;-83
2023/04/15 10:32:02;;;;;;;41.85;22.52;;;7.20;99.90;;;;;;5064123;28;20558;-81
2023/04/15 10:34:29;;;;;;;37.85;23.40;;;7.20;99.90;;;;;;5056763;28;20032;-82
2023/04/15 10:37:08;;;;;;;39.58;20.88;;;7.10;99.90;;;;;;5063060;28;20059;-83
2023/04/15 10:39:33;;;;;;;34.63;20.52;;;7.20;99.90;;;;;;5062977;28;20029;-82
2023/04/15 10:42:07;;;;;;;34.33;21.02;;;7.20;99.90;;;;;;5064573;28;20056;-82
2023/04/15 10:44:33;;;;;;;30.75;18.42;;;7.20;99.90;;;;;;5062209;28;20028;-80
2023/04/15 10:46:58;;;;;;;37.60;18.75;;;7.20;99.90;;;;;;5060362;28;20071;-82
2023/04/15 10:49:25;;;;;;;27.35;18.52;;;7.20;99.90;;;;;;5058950;28;20048;-83
2023/04/15 10:51:55;;;;;;;33.75;20.55;;;7.20;99.90;;;;;;5064938;28;20032;-83
2023/04/15 10:54:24;;;;;;;37.17;19.73;;;7.30;99.90;;;;;;5062641;28;20028;-80
2023/04/15 10:57:05;;;;;;;28.55;18.33;;;7.30;99.90;;;;;;5061016;28;20024;-82
2023/04/15 10:59:58;;;;;;;28.40;17.30;;;7.30;99.90;;;;;;5064120;28;20067;-83
2023/04/15 11:02:40;;;;;;;28.33;18.05;;;7.30;99.90;;;;;;5062555;28;20070;-83
2023/04/15 11:05:08;;;;;;;32.90;19.25;;;7.30;99.90;;;;;;5060521;28;20054;-82
2023/04/15 11:07:45;;;;;;;28.92;17.35;;;7.30;99.90;;;;;;5059343;28;20103;-82
2023/04/15 11:10:20;;;;;;;34.58;19.85;;;7.30;99.90;;;;;;5057560;28;20036;-84
2023/04/15 11:12:50;;;;;;;51.58;18.27;;;7.30;99.90;;;;;;5057208;28;20444;-83
2023/04/15 11:15:31;;;;;;;29.23;19.80;;;7.40;99.90;;;;;;5062232;28;20070;-84
2023/04/15 11:17:58;;;;;;;29.52;19.35;;;7.40;99.90;;;;;;5059203;28;20029;-83
2023/04/15 11:20:24;;;;;;;27.13;17.38;;;7.40;99.90;;;;;;5063557;28;20035;-82
2023/04/15 11:22:51;;;;;;;27.70;17.88;;;7.40;99.90;;;;;;5057733;28;20496;-82
2023/04/15 11:25:26;;;;;;;49.30;19.88;;;7.40;99.90;;;;;;5053586;28;20510;-83
2023/04/15 11:27:53;;;;;;;39.35;17.15;;;7.40;99.90;;;;;;5061820;28;20248;-83
2023/04/15 11:30:27;;;;;;;28.77;17.90;;;7.40;99.90;;;;;;5063269;28;20051;-82
2023/04/15 11:32:57;;;;;;;31.35;18.85;;;7.40;99.90;;;;;;5063239;28;20032;-83
2023/04/15 11:35:23;;;;;;;31.65;19.20;;;7.40;99.90;;;;;;5062334;28;20800;-83
2023/04/15 11:37:49;;;;;;;71.78;18.85;;;7.40;99.90;;;;;;5061049;28;20187;-82
2023/04/15 11:40:16;;;;;;;59.33;19.25;;;7.40;99.90;;;;;;5059330;28;20506;-83
2023/04/15 11:42:43;;;;;;;36.55;19.60;;;7.40;99.90;;;;;;5065539;28;20039;-83
2023/04/15 11:45:14;;;;;;;30.30;19.80;;;7.40;99.90;;;;;;5057608;28;20024;-83
2023/04/15 11:47:43;;;;;;;70.28;20.95;;;7.50;99.90;;;;;;5063765;28;20823;-85
2023/04/15 11:50:15;;;;;;;33.53;19.40;;;7.50;99.90;;;;;;5060852;28;20127;-82
2023/04/15 11:53:05;;;;;;;54.92;20.67;;;7.50;99.90;;;;;;5055849;28;20101;-82
2023/04/15 11:55:40;;;;;;;32.17;19.67;;;7.50;99.90;;;;;;5057703;28;20027;-82
2023/04/15 11:58:17;;;;;;;33.78;20.35;;;7.50;99.90;;;;;;5058441;28;20043;-83
2023/04/15 12:00:51;;;;;;;43.50;20.95;;;7.50;99.90;;;;;;5057328;28;20476;-83
2023/04/15 12:03:20;;;;;;;131.73;24.15;;;7.50;99.90;;;;;;5058142;28;20103;-82
2023/04/15 12:06:06;;;;;;;59.35;20.77;;;7.50;99.90;;;;;;5064789;28;20039;-83
2023/04/15 12:08:57;;;;;;;52.05;21.75;;;7.60;99.90;;;;;;5064286;28;20017;-83
2023/04/15 12:11:27;;;;;;;35.63;20.90;;;7.60;99.90;;;;;;5064188;28;20469;-86
2023/04/15 12:14:01;;;;;;;52.78;20.50;;;7.60;99.90;;;;;;5063609;28;20111;-83
2023/04/15 12:16:27;;;;;;;40.92;19.98;;;7.60;99.90;;;;;;5060852;28;20031;-84
2023/04/15 12:18:55;;;;;;;42.58;19.73;;;7.60;99.90;;;;;;5063303;28;20039;-82
2023/04/15 12:21:22;;;;;;;90.80;20.70;;;7.60;99.90;;;;;;5061129;28;20037;-83
2023/04/15 12:23:50;;;;;;;32.45;20.05;;;7.60;99.90;;;;;;5059081;28;20021;-84
2023/04/15 12:26:17;;;;;;;36.38;21.08;;;7.60;99.90;;;;;;5058586;28;20095;-83
2023/04/15 12:28:45;;;;;;;40.95;19.85;;;7.60;99.90;;;;;;5061738;28;20025;-84
2023/04/15 12:31:13;;;;;;;38.20;20.58;;;7.70;99.90;;;;;;5057947;28;20029;-83
2023/04/15 12:33:39;;;;;;;39.13;21.65;;;7.70;99.90;;;;;;5062768;28;20031;-82
2023/04/15 12:36:05;;;;;;;37.40;20.42;;;7.70;99.90;;;;;;5061489;28;20021;-84
2023/04/15 12:38:31;;;;;;;51.38;23.48;;;7.70;99.90;;;;;;5058710;28;20040;-81